createdAt,value
2018-12-20T00:00:09.805Z,4.39
2018-12-20T00:02:40.943Z,4.41
2018-12-20T00:05:10.945Z,4.42
2018-12-20T00:07:40.835Z,4.44
2018-12-20T00:10:10.808Z,4.51
2018-12-20T00:12:40.697Z,4.57
2018-12-20T00:15:10.758Z,4.59
2018-12-20T00:17:46.196Z,4.61
2018-12-20T00:20:16.164Z,4.58
2018-12-20T00:22:46.292Z,4.59
2018-12-20T00:25:16.400Z,4.60
2018-12-20T00:27:46.229Z,4.60
2018-12-20T00:30:16.177Z,4.56
2018-12-20T00:32:46.149Z,4.56
2018-12-20T00:35:17.201Z,4.57
2018-12-20T00:37:48.241Z,4.63
2018-12-20T00:40:18.281Z,4.66
2018-12-20T00:42:48.107Z,4.68
2018-12-20T00:45:17.859Z,4.67
2018-12-20T00:47:47.740Z,4.73
2018-12-20T00:50:17.694Z,4.71
2018-12-20T00:52:47.543Z,4.77
2018-12-20T00:55:22.025Z,4.72
2018-12-20T00:57:52.039Z,4.71
2018-12-20T01:00:22.066Z,4.72
2018-12-20T01:02:55.220Z,4.74
2018-12-20T01:05:23.857Z,4.82
2018-12-20T01:07:53.782Z,4.83
2018-12-20T01:10:23.764Z,4.85
2018-12-20T01:12:53.573Z,4.84
2018-12-20T01:15:23.497Z,4.85
2018-12-20T01:17:53.337Z,4.85
2018-12-20T01:20:23.312Z,4.84
2018-12-20T01:22:53.155Z,4.82
2018-12-20T01:25:24.023Z,4.86
2018-12-20T01:27:54.052Z,4.89
2018-12-20T01:30:24.022Z,4.86
2018-12-20T01:32:54.045Z,4.93
2018-12-20T01:35:23.990Z,4.98
2018-12-20T01:37:54.095Z,5.11
2018-12-20T01:40:24.310Z,5.16
2018-12-20T01:42:54.321Z,5.20
2018-12-20T01:45:24.263Z,5.23
2018-12-20T01:47:54.070Z,5.32
2018-12-20T01:50:23.871Z,5.38
2018-12-20T01:52:53.987Z,5.41
2018-12-20T01:55:24.146Z,5.43
2018-12-20T01:57:54.048Z,5.43
2018-12-20T02:00:24.149Z,5.45
2018-12-20T02:02:54.373Z,5.46
2018-12-20T02:05:24.319Z,5.44
2018-12-20T02:07:54.127Z,5.47
2018-12-20T02:10:23.967Z,5.50
2018-12-20T02:12:53.894Z,5.56
2018-12-20T02:15:23.800Z,5.53
2018-12-20T02:17:53.988Z,5.48
2018-12-20T02:20:24.080Z,5.34
2018-12-20T02:22:54.020Z,5.23
2018-12-20T02:25:23.981Z,5.16
2018-12-20T02:27:54.165Z,5.15
2018-12-20T02:30:23.989Z,5.12
2018-12-20T02:32:54.039Z,5.09
2018-12-20T02:35:24.332Z,5.12
2018-12-20T02:37:54.299Z,5.14
2018-12-20T02:40:24.493Z,5.18
2018-12-20T02:42:54.606Z,5.23
2018-12-20T02:45:24.521Z,5.32
2018-12-20T02:47:54.618Z,5.36
2018-12-20T02:50:29.870Z,5.38
2018-12-20T02:53:00.867Z,5.46
2018-12-20T02:55:31.004Z,5.50
2018-12-20T02:58:01.030Z,5.52
2018-12-20T03:00:30.985Z,5.58
2018-12-20T03:03:00.959Z,5.62
2018-12-20T03:05:30.884Z,5.61
2018-12-20T03:08:00.888Z,5.61
2018-12-20T03:10:30.831Z,5.60
2018-12-20T03:13:00.728Z,5.61
2018-12-20T03:15:30.889Z,5.54
2018-12-20T03:18:01.030Z,5.60
2018-12-20T03:20:31.065Z,5.59
2018-12-20T03:23:01.268Z,5.58
2018-12-20T03:25:31.451Z,5.53
2018-12-20T03:28:01.528Z,5.48
2018-12-20T03:30:31.345Z,5.48
2018-12-20T03:33:01.343Z,5.48
2018-12-20T03:35:31.338Z,5.52
2018-12-20T03:38:01.257Z,5.56
2018-12-20T03:40:31.210Z,5.58
2018-12-20T03:43:01.376Z,5.53
2018-12-20T03:45:31.662Z,5.58
2018-12-20T03:48:01.960Z,5.55
2018-12-20T03:50:32.259Z,5.56
2018-12-20T03:53:02.224Z,5.63
2018-12-20T03:55:32.731Z,5.65
2018-12-20T03:58:02.931Z,5.67
2018-12-20T04:00:33.841Z,5.63
2018-12-20T04:03:03.927Z,5.58
2018-12-20T04:05:34.773Z,5.59
2018-12-20T04:08:04.902Z,5.58
2018-12-20T04:10:34.774Z,5.54
2018-12-20T04:13:04.824Z,5.51
2018-12-20T04:15:37.922Z,5.43
2018-12-20T04:18:06.957Z,5.36
2018-12-20T04:20:36.937Z,5.35
2018-12-20T04:23:06.820Z,5.26
2018-12-20T04:25:36.705Z,5.17
2018-12-20T04:28:06.760Z,5.16
2018-12-20T04:30:36.615Z,5.18
2018-12-20T04:33:06.527Z,5.18
2018-12-20T04:35:36.782Z,5.19
2018-12-20T04:38:06.604Z,5.18
2018-12-20T04:40:36.552Z,5.15
2018-12-20T04:43:06.470Z,5.16
2018-12-20T04:45:36.499Z,5.15
2018-12-20T04:48:07.226Z,5.17
2018-12-20T04:50:37.140Z,5.06
2018-12-20T04:53:06.952Z,4.95
2018-12-20T04:55:36.930Z,4.80
2018-12-20T04:58:08.251Z,4.69
2018-12-20T05:00:40.462Z,4.61
2018-12-20T05:03:10.130Z,4.63
2018-12-20T05:05:40.036Z,4.61
2018-12-20T05:08:10.456Z,4.66
2018-12-20T05:10:40.605Z,4.70
2018-12-20T05:13:11.162Z,4.67
2018-12-20T05:15:41.069Z,4.65
2018-12-20T05:18:11.076Z,4.65
2018-12-20T05:20:40.924Z,4.62
2018-12-20T05:23:11.432Z,4.64
2018-12-20T05:25:41.604Z,4.68
2018-12-20T05:28:12.112Z,4.71
2018-12-20T05:30:42.062Z,4.78
2018-12-20T05:33:12.860Z,4.73
2018-12-20T05:35:42.966Z,4.60
2018-12-20T05:38:13.000Z,4.62
2018-12-20T05:40:43.058Z,4.74
2018-12-20T05:43:13.038Z,4.88
2018-12-20T05:45:43.564Z,5.00
2018-12-20T05:48:13.692Z,4.90
2018-12-20T05:50:43.684Z,4.77
2018-12-20T05:53:13.523Z,4.74
2018-12-20T05:55:43.918Z,4.78
2018-12-20T05:58:13.825Z,4.76
2018-12-20T06:00:43.911Z,4.70
2018-12-20T06:03:14.372Z,4.53
2018-12-20T06:05:44.566Z,4.44
2018-12-20T06:08:14.441Z,4.34
2018-12-20T06:10:44.352Z,4.34
2018-12-20T06:13:14.157Z,4.45
2018-12-20T06:15:44.847Z,4.58
2018-12-20T06:18:14.892Z,4.64
2018-12-20T06:20:44.961Z,4.67
2018-12-20T06:23:14.828Z,4.59
2018-12-20T06:25:45.291Z,4.52
2018-12-20T06:28:15.207Z,4.44
2018-12-20T06:30:45.027Z,4.35
2018-12-20T06:33:14.816Z,4.31
2018-12-20T06:35:44.649Z,4.18
2018-12-20T06:38:14.452Z,4.11
2018-12-20T06:40:44.325Z,3.99
2018-12-20T06:43:14.189Z,3.96
2018-12-20T06:45:44.094Z,3.87
2018-12-20T06:48:13.960Z,3.87
2018-12-20T06:50:43.845Z,3.91
2018-12-20T06:53:13.733Z,4.05
2018-12-20T06:55:43.572Z,3.98
2018-12-20T06:58:14.057Z,3.84
2018-12-20T07:00:43.996Z,3.65
2018-12-20T07:03:13.917Z,3.51
2018-12-20T07:05:44.357Z,3.33
2018-12-20T07:08:14.239Z,3.15
2018-12-20T07:10:45.295Z,3.11
2018-12-20T07:13:15.096Z,3.10
2018-12-20T07:15:44.944Z,3.05
2018-12-20T07:18:14.824Z,3.13
2018-12-20T07:20:45.103Z,3.21
2018-12-20T07:23:14.964Z,3.28
2018-12-20T07:25:44.781Z,3.35
2018-12-20T07:28:14.587Z,3.42
2018-12-20T07:30:44.413Z,3.43
2018-12-20T07:33:14.211Z,3.47
2018-12-20T07:35:44.096Z,3.52
2018-12-20T07:38:13.909Z,3.59
2018-12-20T07:40:44.016Z,3.71
2018-12-20T07:43:13.912Z,3.93
2018-12-20T07:45:43.892Z,4.03
2018-12-20T07:48:13.732Z,4.15
2018-12-20T07:50:44.304Z,4.29
2018-12-20T07:53:14.143Z,4.34
2018-12-20T07:55:44.048Z,4.46
2018-12-20T07:58:13.989Z,4.54
2018-12-20T08:00:43.904Z,4.63
2018-12-20T08:03:13.713Z,4.74
2018-12-20T08:05:43.565Z,4.84
2018-12-20T08:08:13.572Z,4.96
2018-12-20T08:10:45.076Z,5.10
2018-12-20T08:13:14.905Z,5.19
2018-12-20T08:15:44.837Z,5.31
2018-12-20T08:18:14.843Z,5.40
2018-12-20T08:20:44.761Z,5.57
2018-12-20T08:23:14.949Z,5.70
2018-12-20T08:25:45.832Z,5.83
2018-12-20T08:28:15.587Z,6.00
2018-12-20T08:30:45.437Z,6.17
2018-12-20T08:33:15.873Z,6.31
2018-12-20T08:35:45.788Z,6.39
2018-12-20T08:38:15.940Z,6.38
2018-12-20T08:40:45.833Z,6.42
2018-12-20T08:43:15.608Z,6.46
2018-12-20T08:45:45.452Z,6.49
2018-12-20T08:48:15.280Z,6.52
2018-12-20T08:50:45.920Z,6.58
2018-12-20T08:53:15.928Z,6.59
2018-12-20T08:55:46.267Z,6.52
2018-12-20T08:58:16.308Z,6.52
2018-12-20T09:00:47.237Z,6.52
2018-12-20T09:03:17.124Z,6.54
2018-12-20T09:05:47.015Z,6.58
2018-12-20T09:08:16.906Z,6.80
2018-12-20T09:10:46.740Z,6.98
2018-12-20T09:13:16.539Z,7.17
2018-12-20T09:15:46.411Z,7.46
2018-12-20T09:18:16.272Z,7.58
2018-12-20T09:20:46.348Z,7.78
2018-12-20T09:23:16.229Z,7.83
2018-12-20T09:25:46.208Z,7.84
2018-12-20T09:28:16.092Z,7.79
2018-12-20T09:30:45.940Z,7.78
2018-12-20T09:33:15.991Z,7.85
2018-12-20T09:35:46.946Z,7.92
2018-12-20T09:38:17.829Z,8.14
2018-12-20T09:40:47.670Z,9.08
2018-12-20T09:43:17.572Z,10.43
2018-12-20T09:45:47.396Z,11.93
2018-12-20T09:48:17.336Z,13.10
2018-12-20T09:50:47.298Z,14.15
2018-12-20T09:53:18.080Z,14.75
2018-12-20T09:55:47.872Z,14.52
2018-12-20T09:58:17.709Z,14.74
2018-12-20T10:00:47.720Z,15.06
2018-12-20T10:03:17.551Z,15.09
2018-12-20T10:05:47.456Z,15.37
2018-12-20T10:08:17.341Z,14.21
2018-12-20T10:10:47.118Z,13.07
2018-12-20T10:13:17.161Z,12.28
2018-12-20T10:15:47.211Z,11.67
2018-12-20T10:18:17.160Z,11.22
2018-12-20T10:20:46.996Z,11.20
2018-12-20T10:23:16.883Z,11.15
2018-12-20T10:25:46.732Z,11.29
2018-12-20T10:28:16.618Z,11.81
2018-12-20T10:30:46.532Z,11.99
2018-12-20T10:33:17.731Z,11.87
2018-12-20T10:35:47.912Z,11.85
2018-12-20T10:38:17.800Z,11.69
2018-12-20T10:40:47.740Z,11.63
2018-12-20T10:43:17.617Z,11.41
2018-12-20T10:45:47.564Z,11.39
2018-12-20T10:48:17.536Z,11.05
2018-12-20T10:50:47.359Z,10.78
2018-12-20T10:53:17.137Z,10.74
2018-12-20T10:55:48.097Z,10.80
2018-12-20T10:58:17.920Z,10.63
2018-12-20T11:00:53.052Z,10.53
2018-12-20T11:03:28.359Z,10.43
2018-12-20T11:06:04.236Z,10.41
2018-12-20T11:08:36.024Z,10.56
2018-12-20T11:11:06.776Z,10.63
2018-12-20T11:13:36.668Z,10.88
2018-12-20T11:16:06.566Z,10.89
2018-12-20T11:18:36.416Z,10.93
2018-12-20T11:21:06.296Z,10.91
2018-12-20T11:23:36.131Z,10.72
2018-12-20T11:26:06.021Z,10.76
2018-12-20T11:28:35.852Z,10.79
2018-12-20T11:31:05.854Z,10.77
2018-12-20T11:33:36.228Z,10.74
2018-12-20T11:36:06.036Z,10.79
2018-12-20T11:38:35.919Z,10.74
2018-12-20T11:41:05.881Z,10.87
2018-12-20T11:43:35.826Z,10.89
2018-12-20T11:46:05.593Z,10.74
2018-12-20T11:48:35.541Z,10.55
2018-12-20T11:51:05.377Z,10.28
2018-12-20T11:53:35.195Z,10.25
2018-12-20T11:56:04.995Z,10.49
2018-12-20T11:58:34.816Z,12.24
2018-12-20T12:01:04.767Z,11.86
2018-12-20T12:03:35.059Z,11.11
2018-12-20T12:06:05.096Z,10.64
2018-12-20T12:08:35.287Z,10.83
2018-12-20T12:11:05.064Z,11.04
2018-12-20T12:13:35.668Z,10.75
2018-12-20T12:16:05.553Z,10.87
2018-12-20T12:18:35.542Z,10.64
2018-12-20T12:21:05.476Z,10.99
2018-12-20T12:23:35.319Z,11.41
2018-12-20T12:26:05.180Z,11.67
2018-12-20T12:28:35.046Z,12.06
2018-12-20T12:31:04.960Z,12.33
2018-12-20T12:33:34.885Z,12.29
2018-12-20T12:36:04.955Z,12.12
2018-12-20T12:38:34.792Z,12.08
2018-12-20T12:41:04.611Z,11.83
2018-12-20T12:43:34.520Z,11.68
2018-12-20T12:46:04.649Z,11.54
2018-12-20T12:48:34.645Z,11.49
2018-12-20T12:51:04.684Z,11.69
2018-12-20T12:53:34.508Z,11.98
2018-12-20T12:56:04.629Z,11.72
2018-12-20T12:58:34.410Z,11.78
2018-12-20T13:01:04.233Z,11.69
2018-12-20T13:03:34.072Z,11.81
2018-12-20T13:06:03.973Z,11.77
2018-12-20T13:08:33.925Z,11.86
2018-12-20T13:11:03.876Z,12.28
2018-12-20T13:13:34.000Z,12.47
2018-12-20T13:16:04.061Z,12.52
2018-12-20T13:18:33.948Z,12.27
2018-12-20T13:21:03.951Z,12.12
2018-12-20T13:23:33.798Z,11.82
2018-12-20T13:26:03.713Z,11.41
2018-12-20T13:28:35.619Z,11.40
2018-12-20T13:31:05.678Z,11.18
2018-12-20T13:33:35.520Z,11.14
2018-12-20T13:36:05.942Z,11.15
2018-12-20T13:38:35.728Z,11.21
2018-12-20T13:41:05.724Z,11.35
2018-12-20T13:43:35.664Z,11.52
2018-12-20T13:46:05.744Z,11.55
2018-12-20T13:48:36.012Z,11.82
2018-12-20T13:51:05.925Z,11.91
2018-12-20T13:53:36.020Z,11.55
2018-12-20T13:56:06.613Z,11.25
2018-12-20T13:58:37.759Z,10.98
2018-12-20T14:01:07.900Z,10.84
2018-12-20T14:03:37.763Z,10.73
2018-12-20T14:06:07.665Z,10.68
2018-12-20T14:08:38.565Z,10.62
2018-12-20T14:11:08.942Z,10.54
2018-12-20T14:13:38.876Z,10.42
2018-12-20T14:16:08.836Z,10.33
2018-12-20T14:18:38.707Z,10.13
2018-12-20T14:21:08.613Z,10.07
2018-12-20T14:23:38.535Z,9.97
2018-12-20T14:26:08.363Z,9.76
2018-12-20T14:28:38.256Z,9.68
2018-12-20T14:31:08.141Z,9.50
2018-12-20T14:33:37.964Z,9.33
2018-12-20T14:36:07.880Z,9.35
2018-12-20T14:38:37.700Z,9.27
2018-12-20T14:41:08.770Z,9.00
2018-12-20T14:43:38.605Z,8.92
2018-12-20T14:46:08.440Z,8.69
2018-12-20T14:48:39.556Z,8.44
2018-12-20T14:51:09.748Z,8.29
2018-12-20T14:53:39.637Z,8.21
2018-12-20T14:56:09.480Z,8.15
2018-12-20T14:58:39.472Z,8.00
2018-12-20T15:01:09.380Z,7.90
2018-12-20T15:03:39.155Z,7.88
2018-12-20T15:06:08.994Z,7.79
2018-12-20T15:08:38.909Z,7.77
2018-12-20T15:11:08.761Z,7.65
2018-12-20T15:13:38.672Z,7.52
2018-12-20T15:16:08.533Z,7.45
2018-12-20T15:18:47.441Z,7.42
2018-12-20T15:21:11.136Z,7.42
2018-12-20T15:23:40.972Z,7.40
2018-12-20T15:26:10.903Z,7.50
2018-12-20T15:28:40.804Z,7.59
2018-12-20T15:31:11.667Z,7.56
2018-12-20T15:33:42.128Z,7.53
2018-12-20T15:36:12.052Z,7.57
2018-12-20T15:38:41.856Z,7.54
2018-12-20T15:41:11.968Z,7.54
2018-12-20T15:43:41.823Z,7.51
2018-12-20T15:46:11.701Z,7.37
2018-12-20T15:48:41.553Z,7.18
2018-12-20T15:51:11.571Z,6.91
2018-12-20T15:53:42.507Z,6.59
2018-12-20T15:56:12.354Z,6.30
2018-12-20T15:58:42.238Z,6.07
2018-12-20T16:01:12.138Z,5.97
2018-12-20T16:03:42.025Z,5.87
2018-12-20T16:06:12.017Z,5.98
2018-12-20T16:08:42.100Z,5.86
2018-12-20T16:11:12.056Z,6.00
2018-12-20T16:13:41.934Z,6.09
2018-12-20T16:16:12.024Z,6.17
2018-12-20T16:18:41.863Z,6.23
2018-12-20T16:21:11.820Z,6.02
2018-12-20T16:23:42.108Z,6.00
2018-12-20T16:26:12.480Z,5.93
2018-12-20T16:28:42.440Z,5.80
2018-12-20T16:31:13.009Z,5.76
2018-12-20T16:33:42.923Z,5.73
2018-12-20T16:36:12.937Z,5.83
2018-12-20T16:38:42.824Z,5.99
2018-12-20T16:41:12.776Z,6.14
2018-12-20T16:43:42.858Z,6.22
2018-12-20T16:46:12.816Z,6.26
2018-12-20T16:48:42.720Z,6.36
2018-12-20T16:51:12.844Z,6.42
2018-12-20T16:53:42.950Z,6.45
2018-12-20T16:56:13.160Z,6.50
2018-12-20T16:58:43.008Z,6.51
2018-12-20T17:01:14.816Z,6.56
2018-12-20T17:03:44.918Z,6.69
2018-12-20T17:06:16.063Z,6.80
2018-12-20T17:08:48.425Z,7.00
2018-12-20T17:11:17.863Z,7.16
2018-12-20T17:13:47.891Z,7.30
2018-12-20T17:16:17.725Z,7.30
2018-12-20T17:18:47.620Z,7.22
2018-12-20T17:21:17.588Z,7.14
2018-12-20T17:23:47.460Z,7.11
2018-12-20T17:26:17.968Z,7.03
2018-12-20T17:28:47.784Z,6.86
2018-12-20T17:31:17.621Z,6.70
2018-12-20T17:33:47.536Z,6.63
2018-12-20T17:36:17.413Z,6.48
2018-12-20T17:38:48.363Z,6.35
2018-12-20T17:41:18.822Z,6.32
2018-12-20T17:43:48.602Z,6.13
2018-12-20T17:46:18.518Z,5.90
2018-12-20T17:48:48.344Z,5.68
2018-12-20T17:51:18.265Z,5.45
2018-12-20T17:53:48.369Z,5.34
2018-12-20T17:56:18.332Z,5.26
2018-12-20T17:58:48.101Z,5.15
2018-12-20T18:01:17.933Z,5.05
2018-12-20T18:03:47.958Z,4.96
2018-12-20T18:06:17.832Z,4.88
2018-12-20T18:08:47.615Z,4.82
2018-12-20T18:11:17.500Z,4.87
2018-12-20T18:13:47.444Z,4.86
2018-12-20T18:16:17.416Z,4.78
2018-12-20T18:18:47.324Z,4.73
2018-12-20T18:21:17.228Z,4.62
2018-12-20T18:23:47.157Z,4.57
2018-12-20T18:26:17.087Z,4.67
2018-12-20T18:28:47.474Z,4.58
2018-12-20T18:31:17.429Z,4.50
2018-12-20T18:33:47.345Z,4.48
2018-12-20T18:36:17.540Z,4.41
2018-12-20T18:38:47.375Z,4.42
2018-12-20T18:41:17.197Z,4.41
2018-12-20T18:43:47.084Z,4.39
2018-12-20T18:46:17.739Z,4.36
2018-12-20T18:48:47.633Z,4.41
2018-12-20T18:51:17.421Z,4.52
2018-12-20T18:53:47.841Z,4.55
2018-12-20T18:56:17.711Z,4.77
2018-12-20T18:58:47.576Z,5.02
2018-12-20T19:01:17.364Z,5.06
2018-12-20T19:03:47.246Z,5.22
2018-12-20T19:06:17.195Z,5.23
2018-12-20T19:08:47.034Z,5.31
2018-12-20T19:11:16.885Z,5.44
2018-12-20T19:13:46.780Z,5.63
2018-12-20T19:16:16.666Z,5.80
2018-12-20T19:18:46.505Z,6.01
2018-12-20T19:21:16.394Z,6.13
2018-12-20T19:23:46.243Z,6.19
2018-12-20T19:26:16.072Z,6.35
2018-12-20T19:28:46.079Z,6.39
2018-12-20T19:31:15.998Z,6.43
2018-12-20T19:33:46.511Z,6.49
2018-12-20T19:36:16.454Z,6.48
2018-12-20T19:38:46.456Z,6.39
2018-12-20T19:41:16.384Z,6.38
2018-12-20T19:43:46.237Z,6.29
2018-12-20T19:46:16.134Z,6.20
2018-12-20T19:48:46.108Z,6.04
2018-12-20T19:51:15.956Z,5.94
2018-12-20T19:53:46.741Z,5.89
2018-12-20T19:56:16.697Z,5.77
2018-12-20T19:58:46.576Z,5.65
2018-12-20T20:01:16.420Z,5.63
2018-12-20T20:03:46.316Z,5.62
2018-12-20T20:06:16.197Z,5.61
2018-12-20T20:08:46.685Z,5.58
2018-12-20T20:11:16.798Z,5.61
2018-12-20T20:13:46.678Z,5.64
2018-12-20T20:16:16.528Z,5.71
2018-12-20T20:18:46.528Z,5.76
2018-12-20T20:21:16.316Z,5.80
2018-12-20T20:23:46.120Z,5.85
2018-12-20T20:26:16.031Z,5.92
2018-12-20T20:28:45.882Z,5.92
2018-12-20T20:31:15.720Z,5.92
2018-12-20T20:33:45.656Z,5.89
2018-12-20T20:36:16.512Z,5.88
2018-12-20T20:38:46.933Z,5.97
2018-12-20T20:41:16.751Z,6.07
2018-12-20T20:43:46.823Z,6.20
2018-12-20T20:46:16.750Z,6.21
2018-12-20T20:48:47.400Z,6.37
2018-12-20T20:51:17.306Z,6.37
2018-12-20T20:53:47.353Z,6.32
2018-12-20T20:56:17.202Z,6.30
2018-12-20T20:58:47.023Z,6.26
2018-12-20T21:01:16.885Z,6.23
2018-12-20T21:03:46.735Z,6.20
2018-12-20T21:06:16.647Z,6.23
2018-12-20T21:08:46.473Z,6.20
2018-12-20T21:11:16.396Z,6.19
2018-12-20T21:13:46.304Z,6.17
2018-12-20T21:16:16.323Z,6.16
2018-12-20T21:18:46.261Z,6.19
2018-12-20T21:21:16.458Z,6.16
2018-12-20T21:23:46.512Z,6.08
2018-12-20T21:26:16.692Z,6.04
2018-12-20T21:28:46.593Z,6.01
2018-12-20T21:31:16.765Z,6.05
2018-12-20T21:33:48.248Z,6.06
2018-12-20T21:36:18.176Z,6.05
2018-12-20T21:38:48.239Z,6.08
2018-12-20T21:41:18.077Z,6.20
2018-12-20T21:43:47.966Z,6.17
2018-12-20T21:46:17.823Z,6.18
2018-12-20T21:48:47.616Z,6.12
2018-12-20T21:51:17.489Z,6.04
2018-12-20T21:53:54.851Z,5.92
2018-12-20T21:56:19.945Z,5.78
2018-12-20T21:58:49.815Z,5.74
2018-12-20T22:01:19.832Z,5.65
2018-12-20T22:03:49.709Z,5.61
2018-12-20T22:06:19.984Z,5.55
2018-12-20T22:08:49.989Z,5.51
2018-12-20T22:11:19.872Z,5.52
2018-12-20T22:13:49.704Z,5.58
2018-12-20T22:16:19.652Z,5.55
2018-12-20T22:18:49.537Z,5.55
2018-12-20T22:21:20.359Z,5.53
2018-12-20T22:23:50.908Z,5.60
2018-12-20T22:26:20.757Z,5.59
2018-12-20T22:28:50.637Z,5.67
2018-12-20T22:31:20.545Z,5.60
2018-12-20T22:33:50.435Z,5.55
2018-12-20T22:36:20.252Z,5.52
2018-12-20T22:38:50.179Z,5.48
2018-12-20T22:41:21.108Z,5.50
2018-12-20T22:43:50.941Z,5.48
2018-12-20T22:46:20.913Z,5.52
2018-12-20T22:48:50.897Z,5.53
2018-12-20T22:51:20.861Z,5.53
2018-12-20T22:53:50.700Z,5.51
2018-12-20T22:56:20.709Z,5.54
2018-12-20T22:58:50.659Z,5.61
2018-12-20T23:01:20.638Z,5.71
2018-12-20T23:03:50.619Z,5.78
2018-12-20T23:06:20.769Z,5.83
2018-12-20T23:08:50.937Z,5.89
2018-12-20T23:11:21.619Z,5.97
2018-12-20T23:13:51.516Z,6.01
2018-12-20T23:16:21.366Z,6.06
2018-12-20T23:18:51.332Z,6.09
2018-12-20T23:21:21.187Z,6.14
2018-12-20T23:23:50.985Z,6.15
2018-12-20T23:26:20.937Z,6.23
2018-12-20T23:28:50.868Z,6.25
2018-12-20T23:31:20.747Z,6.28
2018-12-20T23:33:50.572Z,6.24
2018-12-20T23:36:20.678Z,6.24
2018-12-20T23:38:50.528Z,6.29
2018-12-20T23:41:20.406Z,6.32
2018-12-20T23:43:50.437Z,6.36
2018-12-20T23:46:20.955Z,6.42
2018-12-20T23:48:50.735Z,6.50
2018-12-20T23:51:20.712Z,6.58
2018-12-20T23:53:50.739Z,6.62
2018-12-20T23:56:20.613Z,6.62
2018-12-20T23:58:50.430Z,6.68
